Time;durP1;ratioP1;P1;durP2;ratioP2;P2;SDS_P1;SDS_P2;PMS_P1;PMS_P2;Temp;Humidity;BMP_temperature;BMP_pressure;BME280_temperature;BME280_humidity;BME280_pressure;Samples;Min_cycle;Max_cycle;Signal;HPM_P1;HPM_P2
2022/01/16 00:04:44;;;;;;;94.28;32.70;;;2.90;99.90;;;;;;6215464;23;20020;-86
2022/01/16 00:07:10;;;;;;;87.47;33.50;;;2.40;99.90;;;;;;6190571;23;20024;-86
2022/01/16 00:09:36;;;;;;;94.80;31.60;;;1.50;99.90;;;;;;6241200;23;20039;-86
2022/01/16 00:12:06;;;;;;;94.57;34.00;;;1.80;99.90;;;;;;6190850;23;20452;-86
2022/01/16 00:14:33;;;;;;;94.75;34.60;;;1.50;99.90;;;;;;6191080;23;20020;-86
2022/01/16 00:16:59;;;;;;;96.70;31.65;;;1.50;99.90;;;;;;6190735;23;20013;-86
2022/01/16 00:19:25;;;;;;;100.60;35.47;;;1.50;99.90;;;;;;6190286;23;20026;-86
2022/01/16 00:21:51;;;;;;;107.18;34.08;;;2.40;99.90;;;;;;6240610;23;20012;-86
2022/01/16 00:24:17;;;;;;;94.78;32.20;;;1.50;99.90;;;;;;6215328;23;20016;-86
2022/01/16 00:26:42;;;;;;;99.68;33.28;;;1.50;99.90;;;;;;6215927;23;20062;-86
2022/01/16 00:29:09;;;;;;;107.00;35.03;;;2.60;99.90;;;;;;6239967;23;20020;-86
2022/01/16 00:31:37;;;;;;;99.88;32.97;;;1.40;99.90;;;;;;6214797;23;20051;-86
2022/01/16 00:34:04;;;;;;;75.05;27.45;;;1.40;99.90;;;;;;6214239;23;20047;-86
2022/01/16 00:36:30;;;;;;;92.88;30.20;;;1.40;99.90;;;;;;6239435;23;20016;-86
2022/01/16 00:38:56;;;;;;;82.47;29.25;;;1.40;99.90;;;;;;6214483;23;20095;-86
2022/01/16 00:41:22;;;;;;;81.93;29.00;;;1.30;99.90;;;;;;6215245;23;20016;-86
2022/01/16 00:43:50;;;;;;;78.85;28.98;;;1.20;99.90;;;;;;6214441;23;20078;-86
2022/01/16 00:46:17;;;;;;;77.90;27.63;;;1.30;99.90;;;;;;6240279;23;20016;-86
2022/01/16 00:48:42;;;;;;;78.97;26.83;;;1.20;99.90;;;;;;6240502;23;20050;-86
2022/01/16 00:51:09;;;;;;;96.88;33.13;;;1.90;99.90;;;;;;6215156;23;20017;-86
2022/01/16 00:53:35;;;;;;;92.47;31.98;;;1.10;99.90;;;;;;6240482;23;20027;-85
2022/01/16 00:56:00;;;;;;;91.85;30.40;;;1.10;99.90;;;;;;6190042;23;20016;-86
2022/01/16 00:58:26;;;;;;;83.90;28.85;;;1.10;99.90;;;;;;6215135;23;20046;-86
2022/01/16 01:00:52;;;;;;;83.68;28.33;;;2.40;99.90;;;;;;6214927;23;20387;-86
2022/01/16 01:03:18;;;;;;;76.13;27.65;;;2.40;99.90;;;;;;6189573;23;20060;-87
2022/01/16 01:05:43;;;;;;;78.82;27.65;;;2.40;99.90;;;;;;6214790;23;20348;-86
2022/01/16 01:08:10;;;;;;;63.63;24.95;;;1.00;99.90;;;;;;6215169;23;20523;-86
2022/01/16 01:10:39;;;;;;;78.38;26.65;;;1.00;99.90;;;;;;6240039;23;20020;-86
2022/01/16 01:13:11;;;;;;;86.43;30.17;;;2.40;99.90;;;;;;6240212;23;20047;-86
2022/01/16 01:15:48;;;;;;;77.28;29.58;;;1.00;99.90;;;;;;6215411;23;20455;-86
2022/01/16 01:18:14;;;;;;;76.68;28.30;;;1.00;99.90;;;;;;6240039;23;20324;-86
2022/01/16 01:20:42;;;;;;;85.55;32.63;;;2.00;99.90;;;;;;6214932;23;20009;-85
2022/01/16 01:23:09;;;;;;;89.03;31.00;;;1.50;99.90;;;;;;6190460;23;20020;-86
2022/01/16 01:25:35;;;;;;;85.47;30.45;;;1.40;99.90;;;;;;6214678;23;20016;-86
2022/01/16 01:28:01;;;;;;;84.30;29.25;;;1.00;99.90;;;;;;6215089;23;20020;-86
2022/01/16 01:30:27;;;;;;;89.07;29.40;;;1.70;99.90;;;;;;6189879;23;20016;-86
2022/01/16 01:32:54;;;;;;;84.57;30.13;;;1.00;99.90;;;;;;6189418;23;20534;-86
2022/01/16 01:35:21;;;;;;;83.57;29.33;;;1.00;99.90;;;;;;6190583;23;20020;-86
2022/01/16 01:37:48;;;;;;;76.90;29.45;;;1.00;99.90;;;;;;6240213;23;20343;-86
2022/01/16 01:40:24;;;;;;;91.60;31.05;;;1.20;99.90;;;;;;6189670;23;20012;-86
2022/01/16 01:51:15;;;;;;;92.65;30.45;;;1.00;99.90;;;;;;6239732;23;20020;-86
2022/01/16 01:53:43;;;;;;;77.40;27.92;;;1.00;99.90;;;;;;6239752;23;20627;-86
2022/01/16 01:56:12;;;;;;;88.90;28.55;;;1.00;99.90;;;;;;6214665;23;20016;-86
2022/01/16 01:58:38;;;;;;;94.93;31.60;;;1.20;99.90;;;;;;6214542;23;20020;-86
2022/01/16 02:01:05;;;;;;;106.07;32.55;;;0.90;99.90;;;;;;6214400;23;20023;-87
2022/01/16 02:03:42;;;;;;;97.05;31.77;;;0.90;99.90;;;;;;6240388;23;20020;-87
2022/01/16 02:06:24;;;;;;;89.55;30.77;;;0.90;99.90;;;;;;6216964;23;20012;-86
2022/01/16 02:08:52;;;;;;;100.93;32.75;;;1.00;99.90;;;;;;6215542;23;20455;-87
2022/01/16 02:11:19;;;;;;;94.65;31.60;;;1.00;99.90;;;;;;6217456;23;20186;-87
2022/01/16 02:35:02;;;;;;;86.45;29.85;;;0.80;99.90;;;;;;6217895;23;20746;-86
2022/01/16 02:37:28;;;;;;;84.50;29.77;;;0.80;99.90;;;;;;6188911;23;20024;-86
2022/01/16 02:40:00;;;;;;;92.57;29.63;;;0.80;99.90;;;;;;6189484;23;20402;-86
2022/01/16 02:42:28;;;;;;;85.85;29.90;;;0.70;99.90;;;;;;6192722;23;20016;-87
2022/01/16 02:45:01;;;;;;;94.00;30.38;;;1.30;99.90;;;;;;6192222;23;20023;-87
2022/01/16 02:47:27;;;;;;;;;;;1.60;99.90;;;;;;6218483;23;20061;-86
2022/01/16 02:49:53;;;;;;;94.45;31.10;;;0.70;99.90;;;;;;6241753;23;19919;-86
2022/01/16 02:52:21;;;;;;;99.53;31.48;;;0.60;99.90;;;;;;6216690;23;20023;-86
2022/01/16 02:54:50;;;;;;;102.35;33.55;;;0.70;99.90;;;;;;6216287;23;20454;-85
2022/01/16 02:57:19;;;;;;;103.10;32.22;;;0.60;99.90;;;;;;6241303;23;20019;-86
2022/01/16 02:59:48;;;;;;;117.15;33.83;;;2.00;99.90;;;;;;6216379;23;20020;-86
2022/01/16 03:02:14;;;;;;;123.70;35.05;;;0.90;99.90;;;;;;6215608;23;20016;-86
2022/01/16 03:04:40;;;;;;;110.03;33.95;;;0.70;99.90;;;;;;6216387;23;20016;-86
2022/01/16 03:07:06;;;;;;;114.15;33.88;;;1.70;99.90;;;;;;6241330;23;20078;-86
2022/01/16 03:12:10;;;;;;;122.90;35.17;;;0.70;99.90;;;;;;6241694;23;20016;-86
2022/01/16 03:14:36;;;;;;;134.55;37.38;;;0.70;99.90;;;;;;6241270;23;20024;-86
2022/01/16 03:17:02;;;;;;;132.27;36.03;;;0.70;99.90;;;;;;6265699;22;20035;-86
2022/01/16 03:22:12;;;;;;;137.65;36.88;;;0.70;99.90;;;;;;6270594;23;20024;-85
2022/01/16 03:24:41;;;;;;;131.88;36.80;;;0.70;99.90;;;;;;6273436;23;20004;-86
2022/01/16 03:27:09;;;;;;;167.00;40.95;;;0.70;99.90;;;;;;6273099;22;20054;-86
2022/01/16 03:29:36;;;;;;;132.25;36.95;;;0.80;99.90;;;;;;6255348;23;20111;-86
2022/01/16 03:32:04;;;;;;;156.60;39.75;;;2.00;99.90;;;;;;6192488;23;20529;-86
2022/01/16 03:34:30;;;;;;;165.43;39.67;;;0.80;99.90;;;;;;6241546;23;20014;-86
2022/01/16 03:36:55;;;;;;;148.25;38.90;;;2.30;99.90;;;;;;6190369;23;20055;-86
2022/01/16 03:39:21;;;;;;;149.80;38.45;;;0.90;99.90;;;;;;6215938;23;20020;-86
2022/01/16 03:41:47;;;;;;;154.88;38.92;;;0.80;99.90;;;;;;6241211;23;20027;-86
2022/01/16 03:44:13;;;;;;;149.25;38.25;;;0.90;99.90;;;;;;6216483;23;20018;-86
2022/01/16 03:46:41;;;;;;;162.48;42.65;;;1.50;99.90;;;;;;6215898;23;20095;-86
2022/01/16 03:49:10;;;;;;;175.50;42.03;;;0.90;99.90;;;;;;6215789;23;20044;-86
2022/01/16 03:51:37;;;;;;;177.10;42.95;;;1.40;99.90;;;;;;6215824;23;20023;-86
2022/01/16 03:54:04;;;;;;;160.40;42.53;;;1.30;99.90;;;;;;6215609;23;20566;-87
2022/01/16 03:56:30;;;;;;;162.50;40.85;;;1.00;99.90;;;;;;6215795;23;20026;-86
2022/01/16 03:58:56;;;;;;;164.77;41.70;;;1.00;99.90;;;;;;6240304;23;20078;-86
2022/01/16 04:01:24;;;;;;;167.35;41.78;;;1.00;99.90;;;;;;6215361;23;20016;-86
2022/01/16 04:03:53;;;;;;;174.60;41.40;;;2.00;99.90;;;;;;6191054;23;20020;-87
2022/01/16 04:06:20;;;;;;;183.60;45.42;;;2.60;99.90;;;;;;6240518;23;20023;-86
2022/01/16 04:08:50;;;;;;;176.82;41.63;;;1.10;99.90;;;;;;6190645;23;20347;-86
2022/01/16 04:11:16;;;;;;;184.88;44.53;;;1.10;99.90;;;;;;6214893;23;20166;-86
2022/01/16 04:13:50;;;;;;;167.30;42.55;;;1.80;99.90;;;;;;6215634;23;20024;-86
2022/01/16 04:16:17;;;;;;;189.23;43.22;;;1.20;99.90;;;;;;6192238;23;20016;-86
2022/01/16 04:18:43;;;;;;;185.77;43.58;;;1.10;99.90;;;;;;6240488;23;20055;-86
2022/01/16 04:21:08;;;;;;;161.98;39.75;;;1.20;99.90;;;;;;6240482;23;20016;-86
2022/01/16 04:23:34;;;;;;;187.15;44.58;;;1.20;99.90;;;;;;6190562;23;20234;-86
2022/01/16 04:26:00;;;;;;;187.77;45.53;;;1.20;99.90;;;;;;6215388;23;20012;-86
2022/01/16 04:28:25;;;;;;;154.07;42.15;;;1.30;99.90;;;;;;6191472;23;20095;-86
2022/01/16 04:30:52;;;;;;;182.77;44.38;;;1.30;99.90;;;;;;6193255;23;20016;-86
2022/01/16 04:33:18;;;;;;;170.07;43.17;;;2.00;99.90;;;;;;6242669;23;20130;-86
2022/01/16 04:35:44;;;;;;;192.75;46.60;;;1.90;99.90;;;;;;6193185;23;20048;-86
2022/01/16 04:38:10;;;;;;;179.75;45.88;;;1.80;99.90;;;;;;6217638;23;20023;-86
2022/01/16 04:43:47;;;;;;;166.98;42.22;;;1.40;99.90;;;;;;6192795;23;20514;-86
2022/01/16 04:43:52;;;;;;;179.63;46.30;;;1.70;99.90;;;;;;6223068;23;20046;-87
2022/01/16 04:46:28;;;;;;;203.40;46.50;;;1.40;99.90;;;;;;6217527;23;20343;-86
2022/01/16 04:48:55;;;;;;;194.70;46.40;;;1.40;99.90;;;;;;6216822;23;20477;-86
2022/01/16 04:51:22;;;;;;;200.25;48.28;;;1.80;99.90;;;;;;6216981;23;20066;-86
2022/01/16 04:53:49;;;;;;;199.60;45.70;;;1.40;99.90;;;;;;6217027;23;20012;-86
2022/01/16 04:56:14;;;;;;;187.70;44.67;;;1.50;99.90;;;;;;6242693;23;20020;-85
2022/01/16 04:58:42;;;;;;;188.45;48.20;;;1.50;99.90;;;;;;6216267;23;20424;-85
2022/01/16 05:01:09;;;;;;;167.25;42.53;;;1.50;99.90;;;;;;6239742;23;20028;-85
2022/01/16 05:03:35;;;;;;;176.57;44.00;;;1.50;99.90;;;;;;6240320;23;20020;-85
2022/01/16 05:06:03;;;;;;;179.20;44.72;;;1.60;99.90;;;;;;6240858;23;20016;-85
2022/01/16 05:08:29;;;;;;;197.85;47.28;;;1.60;99.90;;;;;;6215425;23;20451;-85
2022/01/16 05:10:57;;;;;;;180.10;44.55;;;1.60;99.90;;;;;;6216095;23;20019;-85
2022/01/16 05:18:38;;;;;;;167.85;42.95;;;1.70;99.90;;;;;;6240522;23;20016;-85
2022/01/16 05:21:05;;;;;;;158.02;42.45;;;1.70;99.90;;;;;;6215110;23;20017;-86
2022/01/16 05:23:31;;;;;;;140.88;40.20;;;1.70;99.90;;;;;;6189470;23;20016;-86
2022/01/16 05:25:57;;;;;;;136.07;38.50;;;2.10;99.90;;;;;;6214935;23;20016;-85
2022/01/16 05:28:23;;;;;;;162.57;41.72;;;2.70;99.90;;;;;;6189503;23;20058;-86
2022/01/16 05:30:49;;;;;;;165.10;43.63;;;1.70;99.90;;;;;;6214937;23;20020;-85
2022/01/16 05:33:15;;;;;;;167.35;44.65;;;1.80;99.90;;;;;;6214712;23;20051;-86
2022/01/16 05:35:42;;;;;;;166.15;40.80;;;1.80;99.90;;;;;;6214511;23;20078;-86
2022/01/16 05:38:09;;;;;;;155.50;42.22;;;1.80;99.90;;;;;;6214211;23;20016;-85
2022/01/16 05:40:35;;;;;;;154.35;42.33;;;1.80;99.90;;;;;;6214823;23;20348;-85
2022/01/16 05:43:01;;;;;;;159.65;42.25;;;1.80;99.90;;;;;;6239382;23;20048;-85
2022/01/16 05:45:27;;;;;;;160.98;44.85;;;2.90;99.90;;;;;;6189685;23;20012;-85
2022/01/16 05:47:53;;;;;;;151.80;43.08;;;1.80;99.90;;;;;;6189689;23;20018;-85
2022/01/16 05:50:19;;;;;;;154.80;42.95;;;1.80;99.90;;;;;;6214520;23;20451;-85
2022/01/16 05:52:45;;;;;;;157.93;44.35;;;2.20;99.90;;;;;;6214577;23;20026;-86
2022/01/16 05:55:11;;;;;;;143.32;41.28;;;1.80;99.90;;;;;;6189574;23;20020;-85
2022/01/16 05:57:37;;;;;;;164.52;44.25;;;1.80;99.90;;;;;;6239793;23;20126;-85
2022/01/16 06:00:07;;;;;;;157.68;44.53;;;2.40;99.90;;;;;;6239603;23;20428;-85
2022/01/16 06:02:33;;;;;;;154.23;40.78;;;1.80;99.90;;;;;;6214255;23;20507;-86
2022/01/16 06:04:59;;;;;;;141.68;42.50;;;2.80;99.90;;;;;;6214972;23;20016;-85
2022/01/16 06:07:25;;;;;;;121.75;36.60;;;1.80;99.90;;;;;;6190958;23;20099;-85
2022/01/16 06:09:52;;;;;;;160.65;43.00;;;1.80;99.90;;;;;;6188554;23;20031;-85
2022/01/16 06:12:19;;;;;;;153.57;42.40;;;1.90;99.90;;;;;;6214430;23;20016;-86
2022/01/16 06:14:44;;;;;;;154.27;46.08;;;1.80;99.90;;;;;;6214889;23;20020;-86
2022/01/16 06:17:13;;;;;;;117.72;35.90;;;1.90;99.90;;;;;;6241284;23;20016;-85
2022/01/16 06:19:39;;;;;;;138.77;41.55;;;1.90;99.90;;;;;;6191079;23;20394;-86
2022/01/16 06:22:05;;;;;;;146.60;42.17;;;1.90;99.90;;;;;;6191091;23;20012;-86
2022/01/16 06:24:31;;;;;;;154.85;45.63;;;1.90;99.90;;;;;;6215685;23;20016;-85
2022/01/16 06:26:56;;;;;;;154.23;42.55;;;2.00;99.90;;;;;;6191153;23;20016;-86
2022/01/16 06:29:23;;;;;;;163.82;46.22;;;2.00;99.90;;;;;;6191482;23;20355;-85
2022/01/16 06:31:48;;;;;;;137.57;40.42;;;2.00;99.90;;;;;;6241961;23;20020;-86
2022/01/16 06:34:14;;;;;;;153.30;44.63;;;2.00;99.90;;;;;;6216400;23;20047;-85
2022/01/16 06:36:40;;;;;;;180.35;44.45;;;2.20;99.90;;;;;;6191359;23;20017;-85
2022/01/16 06:39:09;;;;;;;154.65;44.03;;;2.00;99.90;;;;;;6191122;23;20091;-85
2022/01/16 06:41:35;;;;;;;140.23;42.13;;;2.10;99.90;;;;;;6241514;23;20054;-85
2022/01/16 06:44:01;;;;;;;171.98;45.42;;;2.10;99.90;;;;;;6191306;23;20020;-85
2022/01/16 06:46:27;;;;;;;159.70;43.75;;;2.10;99.90;;;;;;6216170;23;20041;-85
2022/01/16 06:48:53;;;;;;;151.57;44.47;;;2.10;99.90;;;;;;6216227;23;20024;-85
2022/01/16 06:51:21;;;;;;;150.13;42.08;;;2.60;99.90;;;;;;6216403;23;20016;-86
2022/01/16 06:53:48;;;;;;;138.75;40.20;;;2.20;99.90;;;;;;6241617;23;20024;-86
2022/01/16 06:56:15;;;;;;;137.05;40.97;;;2.10;99.90;;;;;;6216382;23;20024;-85
2022/01/16 06:58:41;;;;;;;145.35;41.92;;;2.20;99.90;;;;;;6216609;23;20020;-85
2022/01/16 07:01:07;;;;;;;147.68;41.95;;;2.60;99.90;;;;;;6216215;23;20016;-86
2022/01/16 07:03:33;;;;;;;167.20;42.13;;;2.20;99.90;;;;;;6191864;23;20054;-85
2022/01/16 07:06:00;;;;;;;120.55;34.33;;;2.20;99.90;;;;;;6216369;23;20379;-85
2022/01/16 07:08:27;;;;;;;142.68;42.35;;;2.20;99.90;;;;;;6193622;23;20031;-86
2022/01/16 07:10:57;;;;;;;142.55;42.33;;;2.30;99.90;;;;;;6193050;23;20042;-86
2022/01/16 07:13:24;;;;;;;143.75;41.45;;;2.70;99.90;;;;;;6242227;23;20103;-85
2022/01/16 07:15:51;;;;;;;136.27;40.45;;;2.30;99.90;;;;;;6218651;23;20055;-85
2022/01/16 07:18:17;;;;;;;155.32;42.13;;;2.30;99.90;;;;;;6216536;23;20012;-85
2022/01/16 07:20:44;;;;;;;144.88;40.70;;;2.30;99.90;;;;;;6240929;23;20467;-85
2022/01/16 07:23:10;;;;;;;152.38;41.80;;;2.30;99.90;;;;;;6216108;23;20040;-85
2022/01/16 07:25:36;;;;;;;151.40;41.53;;;2.30;99.90;;;;;;6241007;23;20071;-86
2022/01/16 07:28:03;;;;;;;142.13;40.35;;;2.30;99.90;;;;;;6241010;23;20016;-86
2022/01/16 07:30:29;;;;;;;146.50;41.95;;;2.30;99.90;;;;;;6215930;23;20027;-85
2022/01/16 07:32:54;;;;;;;154.65;39.83;;;2.40;99.90;;;;;;6215675;23;20016;-86
2022/01/16 07:35:20;;;;;;;126.45;35.97;;;2.70;99.90;;;;;;6165467;23;20026;-86
2022/01/16 07:37:47;;;;;;;135.60;38.85;;;2.40;99.90;;;;;;6215838;23;20047;-85
2022/01/16 07:40:13;;;;;;;148.70;40.53;;;2.60;99.90;;;;;;6215852;23;20027;-86
2022/01/16 07:42:39;;;;;;;149.60;40.10;;;2.50;99.90;;;;;;6218430;23;20486;-85
2022/01/16 07:45:05;;;;;;;151.93;41.15;;;2.50;99.90;;;;;;6219273;23;20095;-85
2022/01/16 07:47:31;;;;;;;130.18;38.85;;;2.50;99.90;;;;;;6244539;23;20016;-85
2022/01/16 07:49:57;;;;;;;163.55;43.92;;;2.50;99.90;;;;;;6217803;23;20522;-85
2022/01/16 07:52:23;;;;;;;147.10;39.78;;;2.90;99.90;;;;;;6218088;23;20052;-85
2022/01/16 07:54:48;;;;;;;148.88;41.13;;;3.00;99.90;;;;;;6193583;23;20023;-85
2022/01/16 07:57:14;;;;;;;161.13;42.75;;;2.60;99.90;;;;;;6192536;23;20020;-85
2022/01/16 07:59:40;;;;;;;159.02;41.17;;;2.60;99.90;;;;;;6192108;23;20020;-85
2022/01/16 08:02:06;;;;;;;144.50;42.58;;;2.60;99.90;;;;;;6189226;23;20022;-85
2022/01/16 08:04:32;;;;;;;142.35;40.63;;;3.20;99.90;;;;;;6190052;23;20047;-85
2022/01/16 08:06:57;;;;;;;138.75;39.85;;;3.30;99.90;;;;;;6214889;23;20477;-85
2022/01/16 08:09:23;;;;;;;148.00;38.25;;;2.70;99.90;;;;;;6190293;23;20462;-85
2022/01/16 08:11:50;;;;;;;149.55;39.60;;;2.70;99.90;;;;;;6240465;23;20020;-85
2022/01/16 08:14:15;;;;;;;140.93;41.85;;;2.70;99.90;;;;;;6215088;23;20016;-85
2022/01/16 08:16:41;;;;;;;158.60;41.22;;;2.70;99.90;;;;;;6190236;23;20601;-85
2022/01/16 08:19:07;;;;;;;137.32;41.95;;;2.80;99.90;;;;;;6189904;23;20020;-85
2022/01/16 08:21:32;;;;;;;134.88;41.17;;;2.80;99.90;;;;;;6215105;23;20496;-85
2022/01/16 08:23:58;;;;;;;140.90;42.38;;;4.00;99.90;;;;;;6189769;23;20095;-85
2022/01/16 08:26:24;;;;;;;140.13;40.30;;;2.90;99.90;;;;;;6214652;23;20009;-85
2022/01/16 08:28:49;;;;;;;122.07;38.28;;;3.20;99.90;;;;;;6190273;23;20410;-85
2022/01/16 08:31:15;;;;;;;165.02;42.03;;;2.90;99.90;;;;;;6214945;23;20023;-85
2022/01/16 08:33:41;;;;;;;133.85;38.95;;;2.90;99.90;;;;;;6164965;23;20523;-85
2022/01/16 08:36:07;;;;;;;137.65;40.22;;;3.00;99.90;;;;;;6214665;23;20363;-85
2022/01/16 08:38:33;;;;;;;138.00;41.22;;;3.00;99.90;;;;;;6189583;23;20027;-85
2022/01/16 08:41:01;;;;;;;137.90;40.88;;;3.50;99.90;;;;;;6189654;23;20447;-85
2022/01/16 08:43:29;;;;;;;129.50;41.00;;;3.10;99.90;;;;;;6215524;23;20020;-85
2022/01/16 08:45:55;;;;;;;127.68;41.47;;;3.10;99.90;;;;;;6190522;23;20317;-83
2022/01/16 08:48:21;;;;;;;122.55;39.80;;;3.70;99.90;;;;;;6244017;22;20019;-82
2022/01/16 08:50:47;;;;;;;137.75;41.25;;;3.10;99.90;;;;;;6170511;22;20024;-86
2022/01/16 08:53:12;;;;;;;134.18;40.05;;;3.20;99.90;;;;;;6220527;22;20086;-88
2022/01/16 08:55:38;;;;;;;128.23;39.45;;;3.20;99.90;;;;;;6255615;22;20062;-86
2022/01/16 08:58:04;;;;;;;124.78;40.15;;;3.50;99.90;;;;;;6248173;22;20007;-87
2022/01/16 09:00:31;;;;;;;133.13;39.70;;;3.30;99.90;;;;;;6245495;22;20027;-86
2022/01/16 09:02:57;;;;;;;119.32;40.13;;;3.30;99.90;;;;;;6243564;23;20016;-89
2022/01/16 09:05:25;;;;;;;124.05;38.78;;;4.40;99.90;;;;;;6221792;23;20012;-90
2022/01/16 09:07:51;;;;;;;127.18;39.17;;;3.30;99.90;;;;;;6247981;22;20012;-87
2022/01/16 09:10:17;;;;;;;117.72;41.47;;;3.40;99.90;;;;;;6220258;23;20008;-88
2022/01/16 09:12:42;;;;;;;113.93;40.80;;;4.00;99.90;;;;;;6219248;23;20022;-85
2022/01/16 09:15:11;;;;;;;135.23;42.35;;;3.50;99.90;;;;;;6243519;23;20043;-87
2022/01/16 09:17:37;;;;;;;138.32;42.25;;;3.40;99.90;;;;;;6191971;23;20516;-88
2022/01/16 09:20:05;;;;;;;119.40;38.78;;;3.50;99.90;;;;;;6216508;23;20020;-87
2022/01/16 09:22:31;;;;;;;109.13;39.85;;;3.50;99.90;;;;;;6240093;23;20056;-82
2022/01/16 09:24:56;;;;;;;119.38;37.83;;;3.50;99.90;;;;;;6239371;23;20479;-83
2022/01/16 09:27:22;;;;;;;97.03;36.53;;;3.60;99.90;;;;;;6214781;23;20455;-83
2022/01/16 09:29:48;;;;;;;122.55;39.75;;;3.60;99.90;;;;;;6214709;23;20027;-85
2022/01/16 09:32:14;;;;;;;100.20;36.92;;;3.90;99.90;;;;;;6214345;23;20027;-85
2022/01/16 09:34:42;;;;;;;103.65;36.65;;;3.70;99.90;;;;;;6214525;23;20023;-85
2022/01/16 09:37:09;;;;;;;93.35;33.47;;;3.70;99.90;;;;;;6216062;23;20020;-85
2022/01/16 09:39:39;;;;;;;101.88;39.47;;;3.70;99.90;;;;;;6191485;23;20019;-86
2022/01/16 09:42:06;;;;;;;116.10;37.83;;;3.80;99.90;;;;;;6266487;22;20462;-86
2022/01/16 09:44:36;;;;;;;114.95;38.55;;;3.80;99.90;;;;;;6238845;23;20016;-86
2022/01/16 09:47:03;;;;;;;103.38;38.50;;;4.00;99.90;;;;;;6214001;23;20020;-88
2022/01/16 09:49:29;;;;;;;95.53;37.45;;;3.90;99.90;;;;;;6213872;23;20453;-87
2022/01/16 09:51:54;;;;;;;94.15;36.65;;;4.10;99.90;;;;;;6189402;23;20027;-91
2022/01/16 09:54:21;;;;;;;94.38;37.15;;;3.90;99.90;;;;;;6216915;23;20020;-85
2022/01/16 09:56:47;;;;;;;104.20;36.20;;;4.60;99.90;;;;;;6216603;23;20107;-85
2022/01/16 09:59:13;;;;;;;94.10;35.63;;;4.00;99.90;;;;;;6215715;23;20055;-84
2022/01/16 10:01:39;;;;;;;96.68;35.83;;;4.00;99.90;;;;;;6217229;22;20428;-84
2022/01/16 10:04:31;;;;;;;96.47;34.60;;;4.00;99.90;;;;;;6246429;22;20020;-83
2022/01/16 10:07:02;;;;;;;91.65;38.00;;;4.00;99.90;;;;;;6247612;22;20455;-89
2022/01/16 10:09:28;;;;;;;88.30;34.53;;;4.00;99.90;;;;;;6222030;22;20016;-89
2022/01/16 10:12:01;;;;;;;96.10;36.90;;;4.70;99.90;;;;;;6221654;22;20513;-86
2022/01/16 10:14:29;;;;;;;91.47;36.67;;;4.50;99.90;;;;;;6191376;23;20359;-86
2022/01/16 10:16:55;;;;;;;94.10;33.88;;;4.50;99.90;;;;;;6215452;23;20016;-89
2022/01/16 10:19:29;;;;;;;91.30;35.40;;;4.00;99.90;;;;;;6191087;23;20024;-87
2022/01/16 10:22:02;;;;;;;93.30;36.55;;;4.70;99.90;;;;;;6215849;23;20503;-86
2022/01/16 10:24:31;;;;;;;82.28;34.13;;;4.10;99.90;;;;;;6191411;23;20502;-87
2022/01/16 10:27:09;;;;;;;89.85;33.90;;;4.30;99.90;;;;;;6215955;23;20159;-86
2022/01/16 10:29:43;;;;;;;94.15;34.00;;;4.10;99.90;;;;;;6190982;23;20101;-86
2022/01/16 10:32:24;;;;;;;83.25;36.83;;;4.20;99.90;;;;;;6215790;23;20027;-87
2022/01/16 10:34:52;;;;;;;86.70;34.50;;;4.20;99.90;;;;;;6214211;23;20151;-87
2022/01/16 10:37:32;;;;;;;81.82;33.97;;;4.20;99.90;;;;;;6189007;23;20020;-87
2022/01/16 10:40:05;;;;;;;84.97;35.08;;;4.20;99.90;;;;;;6189021;23;20468;-82
2022/01/16 10:42:33;;;;;;;78.70;35.40;;;4.30;99.90;;;;;;6213930;23;20016;-83
2022/01/16 10:45:08;;;;;;;79.32;32.50;;;4.30;99.90;;;;;;6189008;23;20477;-83
2022/01/16 10:47:47;;;;;;;75.40;32.55;;;4.30;99.90;;;;;;6214556;23;20016;-83
2022/01/16 10:50:17;;;;;;;64.32;31.30;;;4.30;99.90;;;;;;6213587;23;20022;-83
2022/01/16 10:52:46;;;;;;;77.53;32.38;;;4.40;99.90;;;;;;6213646;23;20042;-83
2022/01/16 10:55:11;;;;;;;68.38;32.60;;;4.40;99.90;;;;;;6188645;23;20020;-82
2022/01/16 10:57:37;;;;;;;70.90;31.95;;;4.40;99.90;;;;;;6214147;23;20027;-83
2022/01/16 11:00:22;;;;;;;75.57;32.58;;;4.50;99.90;;;;;;6189084;23;20057;-83
2022/01/16 11:02:51;;;;;;;71.30;33.60;;;4.50;99.90;;;;;;6190904;23;20046;-83
2022/01/16 11:05:20;;;;;;;73.47;32.42;;;4.50;99.90;;;;;;6215678;23;20016;-83
2022/01/16 11:07:54;;;;;;;68.85;30.98;;;4.50;99.90;;;;;;6166299;23;20766;-82
2022/01/16 11:10:38;;;;;;;67.05;30.08;;;5.00;99.90;;;;;;6215688;23;20018;-81
2022/01/16 11:13:07;;;;;;;59.97;27.92;;;4.60;99.90;;;;;;6190096;23;20347;-81
2022/01/16 11:15:35;;;;;;;50.83;26.20;;;4.60;99.90;;;;;;6190741;23;20016;-83
2022/01/16 11:18:02;;;;;;;64.05;29.17;;;5.30;99.90;;;;;;6216122;23;20023;-86
2022/01/16 11:20:33;;;;;;;57.35;27.48;;;4.70;99.90;;;;;;6165814;23;20070;-83
2022/01/16 11:23:03;;;;;;;61.50;26.80;;;4.80;99.90;;;;;;6190641;23;20016;-82
2022/01/16 11:25:33;;;;;;;59.42;27.25;;;4.80;99.90;;;;;;6190993;23;20017;-82
2022/01/16 11:28:05;;;;;;;59.47;26.13;;;4.80;99.90;;;;;;6215614;23;20039;-82
2022/01/16 11:30:33;;;;;;;61.78;26.88;;;4.90;99.90;;;;;;6215053;23;20016;-82
2022/01/16 11:33:00;;;;;;;57.53;25.45;;;4.90;99.90;;;;;;6190070;23;20087;-82
2022/01/16 11:35:27;;;;;;;54.47;27.15;;;4.90;99.90;;;;;;6189525;23;20012;-82
2022/01/16 11:37:55;;;;;;;56.45;26.25;;;4.90;99.90;;;;;;6214832;23;20012;-82
2022/01/16 11:40:27;;;;;;;51.90;25.05;;;4.90;99.90;;;;;;6189042;23;20020;-84
2022/01/16 11:43:12;;;;;;;50.25;23.98;;;4.90;99.90;;;;;;6189589;23;20016;-84
2022/01/16 11:45:54;;;;;;;52.17;25.02;;;5.00;99.90;;;;;;6189251;23;20059;-82
2022/01/16 11:48:36;;;;;;;61.15;25.65;;;5.00;99.90;;;;;;6189832;23;20016;-83
2022/01/16 11:51:26;;;;;;;55.75;25.63;;;5.00;99.90;;;;;;6214564;23;20075;-82
2022/01/16 11:54:01;;;;;;;51.33;25.88;;;5.00;99.90;;;;;;6189588;23;20083;-82
2022/01/16 11:56:41;;;;;;;50.45;24.40;;;4.90;99.90;;;;;;6190226;23;20020;-82
2022/01/16 11:59:10;;;;;;;58.13;24.30;;;5.00;99.90;;;;;;6190362;23;20020;-83
2022/01/16 12:02:00;;;;;;;50.33;23.33;;;5.00;99.90;;;;;;6215155;23;20020;-83
2022/01/16 12:04:29;;;;;;;50.92;22.98;;;5.00;99.90;;;;;;6190343;23;20022;-81
2022/01/16 12:07:21;;;;;;;44.97;23.17;;;5.00;99.90;;;;;;6190106;23;20018;-81
2022/01/16 12:09:52;;;;;;;49.70;24.25;;;5.00;99.90;;;;;;6189264;23;20027;-80
2022/01/16 12:12:18;;;;;;;43.17;22.27;;;5.10;99.90;;;;;;6189480;23;20023;-80
2022/01/16 12:14:57;;;;;;;48.20;23.10;;;5.00;99.90;;;;;;6189504;23;20111;-80
2022/01/16 12:17:43;;;;;;;43.33;20.67;;;5.00;99.90;;;;;;6189260;23;20024;-80
2022/01/16 12:20:12;;;;;;;45.25;21.77;;;5.10;99.90;;;;;;6189462;23;20093;-80
2022/01/16 12:22:52;;;;;;;39.85;21.13;;;5.10;99.90;;;;;;6190249;23;20016;-84
2022/01/16 12:25:40;;;;;;;43.83;19.73;;;5.10;99.90;;;;;;6214246;23;20403;-86
2022/01/16 12:28:08;;;;;;;41.05;19.85;;;5.10;99.90;;;;;;6215672;23;20023;-84
2022/01/16 12:30:58;;;;;;;37.53;18.60;;;5.10;99.90;;;;;;6215645;23;20073;-84
2022/01/16 12:33:36;;;;;;;37.38;18.67;;;5.10;99.90;;;;;;6215319;23;20012;-87
2022/01/16 12:36:15;;;;;;;38.03;18.13;;;5.20;99.90;;;;;;6214456;23;20012;-85
2022/01/16 12:39:03;;;;;;;30.45;16.38;;;5.20;99.90;;;;;;6190101;23;20356;-85
2022/01/16 12:41:46;;;;;;;34.67;17.02;;;5.20;99.90;;;;;;6190384;23;20016;-86
2022/01/16 12:44:16;;;;;;;;;;;5.10;99.90;;;;;;6218961;23;20016;-86
2022/01/16 12:46:43;;;;;;;29.48;13.50;;;5.20;99.90;;;;;;6241058;23;19911;-86
2022/01/16 12:49:17;;;;;;;26.92;13.55;;;5.60;99.90;;;;;;6214621;23;20027;-85
2022/01/16 12:51:46;;;;;;;26.98;13.32;;;5.30;99.90;;;;;;6215500;23;20016;-85
2022/01/16 12:54:20;;;;;;;25.88;11.75;;;5.40;99.90;;;;;;6214409;23;20412;-86
2022/01/16 12:56:52;;;;;;;21.55;11.13;;;5.40;99.90;;;;;;6191135;23;20020;-86
2022/01/16 12:59:20;;;;;;;20.75;11.23;;;5.50;99.90;;;;;;6166143;23;20078;-86
2022/01/16 13:01:53;;;;;;;19.42;11.20;;;5.50;99.90;;;;;;6214030;23;20016;-86
2022/01/16 13:04:29;;;;;;;19.90;10.85;;;5.50;99.90;;;;;;6187964;23;20024;-85
2022/01/16 13:07:00;;;;;;;20.92;11.20;;;5.60;99.90;;;;;;6237983;23;20478;-85
2022/01/16 13:09:27;;;;;;;22.50;11.25;;;5.60;99.90;;;;;;6214688;23;20051;-85
2022/01/16 13:12:01;;;;;;;20.70;11.07;;;5.70;99.90;;;;;;6215771;23;20024;-85
2022/01/16 13:14:46;;;;;;;24.27;12.13;;;5.70;99.90;;;;;;6214804;23;20016;-85
2022/01/16 13:17:13;;;;;;;25.17;12.77;;;5.70;99.90;;;;;;6214883;23;20043;-85
2022/01/16 13:22:12;;;;;;;19.23;11.57;;;5.70;99.90;;;;;;6214390;23;20023;-86
2022/01/16 13:24:47;;;;;;;20.40;10.90;;;5.70;99.90;;;;;;6214298;23;20016;-85
2022/01/16 13:27:16;;;;;;;19.38;11.63;;;5.70;99.90;;;;;;6215927;23;20020;-85